createdAt,value
2022-10-22T00:00:56.263Z,93504.36
2022-10-22T00:09:30.907Z,93512.32
2022-10-22T00:17:53.664Z,93534.95
2022-10-22T00:26:16.559Z,93532.84
2022-10-22T00:34:39.534Z,93510.73
2022-10-22T00:43:02.311Z,93511.95
2022-10-22T00:51:30.288Z,93529.28
2022-10-22T00:59:55.782Z,93558.02
2022-10-22T01:08:33.374Z,93560.61
2022-10-22T01:17:02.776Z,93563.17
2022-10-22T01:25:37.327Z,93579.94
2022-10-22T01:34:01.278Z,93573.58
2022-10-22T01:42:24.448Z,93568.62
2022-10-22T01:51:02.275Z,93594.48
2022-10-22T01:59:36.294Z,93609.46
2022-10-22T02:08:16.154Z,93603.61
2022-10-22T02:16:43.164Z,93618.84
2022-10-22T02:25:07.062Z,93649.63
2022-10-22T02:33:37.793Z,93651.41
2022-10-22T02:42:02.718Z,93645.70
2022-10-22T02:50:25.479Z,93659.23
2022-10-22T02:58:48.630Z,93680.83
2022-10-22T03:07:11.635Z,93685.70
2022-10-22T03:15:34.637Z,93701.09
2022-10-22T03:23:58.349Z,93723.06
2022-10-22T03:32:21.187Z,93711.59
2022-10-22T03:40:46.267Z,93673.39
2022-10-22T03:49:09.256Z,93671.35
2022-10-22T03:57:32.361Z,93708.62
2022-10-22T04:06:01.385Z,93751.39
2022-10-22T04:14:25.403Z,93774.58
2022-10-22T04:22:48.348Z,93804.23
2022-10-22T04:31:14.631Z,93841.73
2022-10-22T04:39:37.476Z,93864.93
2022-10-22T04:48:00.595Z,93894.86
2022-10-22T04:56:33.308Z,93897.92
2022-10-22T05:04:56.130Z,93874.68
2022-10-22T05:13:18.938Z,93862.30
2022-10-22T05:21:41.760Z,93859.06
2022-10-22T05:30:05.274Z,93862.85
2022-10-22T05:38:28.206Z,93879.43
2022-10-22T05:46:51.035Z,93889.48
2022-10-22T05:55:13.972Z,93914.32
2022-10-22T06:03:36.909Z,93966.76
2022-10-22T06:11:59.803Z,94018.04
2022-10-22T06:20:22.601Z,94079.52
2022-10-22T06:28:45.629Z,94130.47
2022-10-22T06:37:10.013Z,94157.92
2022-10-22T06:45:33.044Z,94165.63
2022-10-22T06:53:56.845Z,94218.81
2022-10-22T07:02:19.753Z,94291.69
2022-10-22T07:10:45.712Z,94335.57
2022-10-22T07:19:09.210Z,94335.67
2022-10-22T07:27:32.283Z,94339.36
2022-10-22T07:36:07.213Z,94344.64
2022-10-22T07:44:30.340Z,94378.48
2022-10-22T07:52:54.868Z,94418.67
2022-10-22T08:01:20.424Z,94460.98
2022-10-22T08:09:43.535Z,94571.45
2022-10-22T08:18:07.158Z,94624.48
2022-10-22T08:26:30.995Z,94676.38
2022-10-22T08:34:54.900Z,94789.23
2022-10-22T08:43:58.389Z,94854.63
2022-10-22T08:52:22.063Z,94907.48
2022-10-22T09:00:52.544Z,94996.48
2022-10-22T09:09:18.438Z,95037.12
2022-10-22T09:17:55.418Z,95046.92
2022-10-22T09:26:18.410Z,95094.38
2022-10-22T09:34:43.733Z,95186.19
2022-10-22T09:43:06.761Z,95213.38
2022-10-22T09:51:52.925Z,95219.30
2022-10-22T10:00:20.510Z,95209.10
2022-10-22T10:08:43.567Z,95197.55
2022-10-22T10:17:37.518Z,95258.27
2022-10-22T10:26:24.160Z,95354.71
2022-10-22T10:34:58.066Z,95324.25
2022-10-22T10:43:23.872Z,95279.14
2022-10-22T10:51:55.462Z,95272.20
2022-10-22T11:00:21.043Z,95256.88
2022-10-22T11:08:58.154Z,95283.23
2022-10-22T11:17:23.293Z,95335.56
2022-10-22T11:25:48.251Z,95374.48
2022-10-22T11:34:39.890Z,95412.26
2022-10-22T11:43:06.680Z,95431.74
2022-10-22T11:51:35.624Z,95451.80
2022-10-22T12:00:00.853Z,95499.64
2022-10-22T12:08:26.668Z,95562.77
2022-10-22T12:17:05.906Z,95523.39
2022-10-22T12:25:35.734Z,95474.98
2022-10-22T12:33:59.574Z,95462.40
2022-10-22T12:42:23.947Z,95427.41
2022-10-22T12:50:54.448Z,95418.80
2022-10-22T12:59:22.733Z,95427.41
2022-10-22T13:08:10.191Z,95419.20
2022-10-22T13:16:33.437Z,95437.49
2022-10-22T13:25:00.030Z,95493.36
2022-10-22T13:33:40.379Z,95550.30
2022-10-22T13:42:03.304Z,95595.11
2022-10-22T13:50:26.179Z,95660.77
2022-10-22T13:58:49.810Z,95670.48
2022-10-22T14:07:15.852Z,95649.48
2022-10-22T14:15:39.934Z,95640.16
2022-10-22T14:24:08.248Z,95625.60
2022-10-22T14:32:33.694Z,95588.60
2022-10-22T14:40:59.229Z,95559.13
2022-10-22T14:49:22.232Z,95534.17
2022-10-22T14:57:45.889Z,95499.59
2022-10-22T15:06:08.918Z,95475.63
2022-10-22T15:14:31.981Z,95464.73
2022-10-22T15:22:54.780Z,95422.10
2022-10-22T15:31:47.138Z,95396.54
2022-10-22T15:40:10.422Z,95391.29
2022-10-22T15:48:33.706Z,95383.60
2022-10-22T15:56:57.700Z,95388.12
2022-10-22T16:05:21.179Z,95396.41
2022-10-22T16:13:44.027Z,95393.27
2022-10-22T16:22:09.735Z,95369.77
2022-10-22T16:30:34.705Z,95346.66
2022-10-22T16:38:57.677Z,95322.08
2022-10-22T16:47:22.034Z,95329.88
2022-10-22T16:55:45.862Z,95351.39
2022-10-22T17:04:10.080Z,95359.30
2022-10-22T17:12:35.520Z,95368.23
2022-10-22T17:20:59.078Z,95387.45
2022-10-22T17:29:22.500Z,95363.80
2022-10-22T17:37:45.414Z,95342.01
2022-10-22T17:46:16.388Z,95351.48
2022-10-22T17:54:41.866Z,95358.52
2022-10-22T18:03:05.477Z,95377.95
2022-10-22T18:11:28.403Z,95401.35
2022-10-22T18:19:51.255Z,95410.83
2022-10-22T18:28:15.981Z,95388.39
2022-10-22T18:36:40.827Z,95386.12
2022-10-22T18:45:04.227Z,95399.86
2022-10-22T18:53:27.542Z,95414.83
2022-10-22T19:01:52.710Z,95422.38
2022-10-22T19:10:16.068Z,95434.36
2022-10-22T19:18:39.764Z,95435.24
2022-10-22T19:27:02.612Z,95436.57
2022-10-22T19:35:25.492Z,95442.32
2022-10-22T19:43:52.342Z,95458.18
2022-10-22T19:52:15.445Z,95479.46
2022-10-22T20:00:38.884Z,95482.61
2022-10-22T20:09:01.876Z,95483.27
2022-10-22T20:17:24.828Z,95492.85
2022-10-22T20:25:48.650Z,95494.86
2022-10-22T20:34:11.998Z,95495.42
2022-10-22T20:42:35.578Z,95499.67
2022-10-22T20:50:59.868Z,95488.31
2022-10-22T20:59:24.544Z,95461.38
2022-10-22T21:07:47.514Z,95452.45
2022-10-22T21:16:13.027Z,95451.80
2022-10-22T21:24:35.845Z,95444.81
2022-10-22T21:32:58.645Z,95425.04
2022-10-22T21:41:24.644Z,95412.71
2022-10-22T21:49:47.683Z,95404.26
2022-10-22T21:58:10.515Z,95407.40
2022-10-22T22:06:35.708Z,95414.64
2022-10-22T22:14:58.547Z,95421.80
2022-10-22T22:23:21.424Z,95437.30
2022-10-22T22:31:46.224Z,95445.75
2022-10-22T22:40:10.298Z,95455.38
2022-10-22T22:48:34.356Z,95451.94
2022-10-22T22:56:57.272Z,95441.86
2022-10-22T23:05:20.299Z,95443.12
2022-10-22T23:13:43.923Z,95454.11
2022-10-22T23:22:07.129Z,95469.01
2022-10-22T23:30:30.021Z,95475.73
2022-10-22T23:38:53.122Z,95484.05
2022-10-22T23:47:15.937Z,95491.69
2022-10-22T23:55:41.125Z,95497.60
